createdAt,value
2022-12-04T00:01:04.770Z,19.77
2022-12-04T00:03:07.753Z,19.30
2022-12-04T00:05:12.433Z,19.30
2022-12-04T00:07:15.336Z,18.20
2022-12-04T00:09:18.261Z,19.90
2022-12-04T00:11:22.306Z,17.13
2022-12-04T00:13:25.283Z,19.63
2022-12-04T00:15:28.201Z,17.63
2022-12-04T00:17:31.295Z,19.70
2022-12-04T00:19:34.210Z,19.97
2022-12-04T00:21:38.428Z,20.23
2022-12-04T00:23:42.015Z,18.10
2022-12-04T00:25:48.892Z,19.03
2022-12-04T00:27:51.820Z,20.40
2022-12-04T00:29:54.962Z,19.90
2022-12-04T00:31:58.407Z,19.40
2022-12-04T00:34:02.361Z,18.70
2022-12-04T00:36:07.126Z,19.17
2022-12-04T00:38:11.325Z,19.17
2022-12-04T00:40:14.980Z,20.13
2022-12-04T00:42:17.890Z,19.53
2022-12-04T00:44:21.099Z,18.37
2022-12-04T00:46:24.369Z,18.33
2022-12-04T00:48:27.397Z,20.27
2022-12-04T00:50:30.365Z,19.77
2022-12-04T00:52:33.195Z,18.20
2022-12-04T00:54:37.412Z,20.13
2022-12-04T00:56:40.778Z,19.30
2022-12-04T00:58:44.095Z,19.67
2022-12-04T01:00:47.107Z,19.33
2022-12-04T01:02:50.225Z,18.80
2022-12-04T01:04:53.155Z,19.67
2022-12-04T01:06:58.073Z,18.07
2022-12-04T01:09:06.190Z,18.30
2022-12-04T01:11:12.609Z,20.20
2022-12-04T01:13:16.700Z,20.17
2022-12-04T01:15:19.619Z,18.40
2022-12-04T01:17:22.585Z,17.97
2022-12-04T01:19:25.501Z,19.50
2022-12-04T01:21:31.786Z,18.23
2022-12-04T01:23:34.655Z,18.47
2022-12-04T01:25:37.673Z,18.50
2022-12-04T01:27:42.099Z,18.50
2022-12-04T01:29:45.053Z,17.70
2022-12-04T01:31:48.060Z,17.13
2022-12-04T01:33:52.352Z,18.33
2022-12-04T01:35:55.823Z,18.20
2022-12-04T01:37:58.680Z,17.97
2022-12-04T01:40:01.565Z,18.80
2022-12-04T01:42:04.672Z,16.40
2022-12-04T01:44:14.163Z,18.13
2022-12-04T01:46:17.200Z,16.73
2022-12-04T01:48:24.472Z,16.90
2022-12-04T01:50:27.600Z,17.10
2022-12-04T01:52:30.442Z,17.47
2022-12-04T01:54:36.081Z,17.53
2022-12-04T01:56:42.385Z,16.47
2022-12-04T01:58:48.618Z,16.13
2022-12-04T02:00:58.361Z,18.57
2022-12-04T02:03:02.077Z,17.00
2022-12-04T02:05:07.577Z,16.80
2022-12-04T02:07:10.832Z,15.73
2022-12-04T02:09:13.720Z,15.03
2022-12-04T02:11:25.595Z,14.87
2022-12-04T02:13:32.887Z,16.07
2022-12-04T02:15:39.895Z,16.47
2022-12-04T02:17:51.862Z,17.17
2022-12-04T02:20:13.111Z,15.30
2022-12-04T02:22:26.400Z,14.90
2022-12-04T02:24:49.640Z,15.40
2022-12-04T02:26:57.167Z,15.13
2022-12-04T02:29:04.344Z,15.40
2022-12-04T02:31:10.555Z,15.70
2022-12-04T02:33:19.480Z,14.87
2022-12-04T02:35:26.699Z,14.60
2022-12-04T02:37:32.499Z,16.90
2022-12-04T02:39:38.614Z,14.40
2022-12-04T02:41:43.867Z,13.97
2022-12-04T02:43:48.561Z,14.90
2022-12-04T02:45:56.218Z,14.57
2022-12-04T02:48:00.923Z,15.50
2022-12-04T02:50:07.512Z,15.80
2022-12-04T02:52:14.752Z,13.23
2022-12-04T02:54:21.486Z,14.47
2022-12-04T02:56:26.561Z,15.30
2022-12-04T02:58:32.623Z,14.00
2022-12-04T03:00:36.081Z,14.90
2022-12-04T03:02:46.320Z,14.97
2022-12-04T03:04:50.625Z,13.57
2022-12-04T03:06:56.771Z,15.00
2022-12-04T03:09:02.463Z,14.03
2022-12-04T03:11:05.548Z,13.93
2022-12-04T03:13:11.485Z,13.07
2022-12-04T03:15:17.545Z,14.53
2022-12-04T03:17:26.862Z,15.40
2022-12-04T03:19:36.025Z,14.33
2022-12-04T03:21:41.760Z,13.90
2022-12-04T03:23:48.326Z,15.50
2022-12-04T03:25:55.174Z,14.10
2022-12-04T03:28:01.978Z,14.33
2022-12-04T03:30:07.730Z,14.37
2022-12-04T03:32:13.966Z,14.93
2022-12-04T03:34:22.434Z,15.07
2022-12-04T03:36:30.075Z,14.00
2022-12-04T03:38:37.265Z,13.60
2022-12-04T03:40:43.317Z,15.07
2022-12-04T03:42:48.810Z,15.50
2022-12-04T03:44:55.266Z,13.70
2022-12-04T03:47:01.942Z,14.70
2022-12-04T03:49:11.460Z,14.07
2022-12-04T03:51:17.184Z,14.53
2022-12-04T03:53:27.100Z,16.57
2022-12-04T03:55:33.424Z,15.70
2022-12-04T03:57:40.769Z,15.17
2022-12-04T03:59:48.893Z,14.73
2022-12-04T04:01:57.649Z,16.70
2022-12-04T04:04:02.080Z,15.53
2022-12-04T04:06:07.956Z,15.03
2022-12-04T04:08:27.143Z,15.20
2022-12-04T04:10:31.589Z,14.80
2022-12-04T04:12:37.939Z,14.87
2022-12-04T04:15:01.257Z,15.73
2022-12-04T04:17:25.569Z,14.80
2022-12-04T04:19:48.509Z,14.67
2022-12-04T04:22:11.047Z,14.20
2022-12-04T04:24:28.912Z,14.57
2022-12-04T04:26:36.789Z,16.90
2022-12-04T04:28:40.852Z,15.50
2022-12-04T04:30:44.076Z,14.20
2022-12-04T04:32:51.884Z,14.60
2022-12-04T04:35:50.260Z,15.00
2022-12-04T04:37:58.610Z,12.90
2022-12-04T04:40:05.745Z,14.53
2022-12-04T04:42:13.855Z,13.40
2022-12-04T04:44:19.272Z,14.87
2022-12-04T04:46:24.657Z,14.00
2022-12-04T04:48:31.091Z,13.90
2022-12-04T04:50:34.651Z,14.37
2022-12-04T04:52:38.849Z,14.40
2022-12-04T04:54:42.164Z,13.80
2022-12-04T04:56:46.690Z,13.97
2022-12-04T04:58:51.325Z,13.37
2022-12-04T05:00:59.422Z,13.37
2022-12-04T05:03:02.918Z,12.90
2022-12-04T05:05:06.419Z,12.63
2022-12-04T05:07:09.561Z,13.00
2022-12-04T05:09:12.402Z,12.10
2022-12-04T05:11:16.531Z,12.07
2022-12-04T05:13:21.721Z,13.00
2022-12-04T05:15:26.125Z,12.47
2022-12-04T05:17:29.154Z,12.57
2022-12-04T05:19:51.139Z,12.07
2022-12-04T05:21:54.300Z,12.13
2022-12-04T05:23:57.450Z,13.73
2022-12-04T05:26:01.213Z,11.93
2022-12-04T05:28:04.236Z,11.20
2022-12-04T05:30:08.286Z,10.60
2022-12-04T05:32:12.490Z,9.90
2022-12-04T05:34:15.475Z,9.33
2022-12-04T05:36:18.360Z,11.03
2022-12-04T05:38:21.360Z,10.83
2022-12-04T05:40:24.364Z,11.53
2022-12-04T05:42:27.266Z,14.20
2022-12-04T05:44:30.131Z,12.07
2022-12-04T05:46:32.982Z,13.00
2022-12-04T05:48:37.567Z,11.83
2022-12-04T05:50:40.582Z,11.93
2022-12-04T05:52:43.489Z,11.17
2022-12-04T05:54:46.582Z,11.93
2022-12-04T05:56:49.433Z,10.90
2022-12-04T05:58:52.640Z,10.53
2022-12-04T06:00:55.863Z,10.90
2022-12-04T06:02:58.786Z,11.33
2022-12-04T06:05:03.379Z,10.13
2022-12-04T06:07:06.851Z,9.70
2022-12-04T06:09:09.850Z,9.73
2022-12-04T06:11:13.363Z,10.13
2022-12-04T06:13:16.264Z,10.47
2022-12-04T06:15:19.242Z,9.17
2022-12-04T06:17:22.203Z,10.10
2022-12-04T06:19:25.147Z,9.70
2022-12-04T06:21:31.510Z,9.40
2022-12-04T06:23:34.787Z,10.10
2022-12-04T06:25:37.708Z,9.80
2022-12-04T06:27:40.597Z,10.60
2022-12-04T06:29:43.786Z,9.03
2022-12-04T06:31:46.772Z,9.67
2022-12-04T06:33:50.257Z,10.20
2022-12-04T06:35:59.349Z,10.40
2022-12-04T06:38:04.346Z,9.40
2022-12-04T06:40:09.791Z,9.17
2022-12-04T06:42:12.942Z,9.67
2022-12-04T06:44:16.622Z,9.60
2022-12-04T06:46:21.215Z,10.50
2022-12-04T06:48:25.201Z,10.93
2022-12-04T06:50:28.060Z,10.03
2022-12-04T06:52:31.012Z,10.57
2022-12-04T06:54:35.368Z,10.60
2022-12-04T06:56:38.310Z,10.00
2022-12-04T06:58:43.720Z,10.80
2022-12-04T07:00:46.653Z,9.80
2022-12-04T07:02:49.642Z,10.60
2022-12-04T07:04:56.524Z,10.97
2022-12-04T07:06:59.625Z,10.10
2022-12-04T07:09:05.629Z,10.60
2022-12-04T07:11:10.458Z,11.67
2022-12-04T07:13:13.387Z,9.67
2022-12-04T07:15:16.646Z,10.83
2022-12-04T07:17:19.787Z,10.90
2022-12-04T07:19:23.716Z,11.03
2022-12-04T07:21:27.930Z,10.50
2022-12-04T07:23:30.916Z,9.67
2022-12-04T07:25:33.870Z,10.00
2022-12-04T07:27:38.899Z,11.40
2022-12-04T07:29:42.646Z,10.73
2022-12-04T07:31:45.677Z,10.60
2022-12-04T07:33:49.969Z,10.80
2022-12-04T07:35:56.621Z,11.40
2022-12-04T07:37:59.462Z,10.40
2022-12-04T07:40:02.636Z,9.93
2022-12-04T07:42:05.739Z,11.60
2022-12-04T07:44:09.948Z,10.63
2022-12-04T07:46:14.875Z,11.03
2022-12-04T07:48:18.112Z,9.67
2022-12-04T07:50:20.970Z,10.30
2022-12-04T07:52:23.918Z,11.87
2022-12-04T07:54:26.963Z,11.20
2022-12-04T07:56:30.252Z,10.63
2022-12-04T07:58:33.436Z,10.50
2022-12-04T08:00:37.619Z,11.37
2022-12-04T08:02:43.083Z,11.40
2022-12-04T08:04:46.239Z,10.90
2022-12-04T08:06:49.145Z,10.50
2022-12-04T08:08:52.731Z,11.40
2022-12-04T08:10:55.546Z,12.30
2022-12-04T08:12:58.557Z,10.53
2022-12-04T08:15:01.438Z,11.57
2022-12-04T08:17:05.714Z,11.60
2022-12-04T08:19:08.646Z,10.70
2022-12-04T08:21:14.150Z,13.17
2022-12-04T08:23:17.212Z,12.00
2022-12-04T08:25:20.072Z,11.30
2022-12-04T08:27:22.992Z,11.30
2022-12-04T08:29:26.077Z,11.40
2022-12-04T08:31:30.628Z,11.40
2022-12-04T08:33:35.318Z,12.00
2022-12-04T08:35:38.193Z,12.43
2022-12-04T08:37:41.456Z,12.37
2022-12-04T08:39:44.970Z,11.40
2022-12-04T08:41:50.079Z,12.47
2022-12-04T08:43:57.956Z,12.60
2022-12-04T08:46:02.805Z,13.10
2022-12-04T08:48:06.281Z,12.07
2022-12-04T08:50:11.151Z,12.97
2022-12-04T08:52:14.346Z,12.33
2022-12-04T08:54:17.554Z,13.10
2022-12-04T08:56:20.456Z,12.83
2022-12-04T08:58:23.990Z,11.30
2022-12-04T09:00:27.325Z,11.83
2022-12-04T09:02:30.249Z,12.30
2022-12-04T09:04:33.171Z,12.70
2022-12-04T09:06:38.154Z,12.87
2022-12-04T09:08:41.713Z,13.63
2022-12-04T09:10:45.300Z,12.50
2022-12-04T09:12:48.140Z,12.73
2022-12-04T09:14:51.098Z,14.23
2022-12-04T09:16:54.291Z,12.90
2022-12-04T09:18:57.545Z,12.53
2022-12-04T09:21:01.857Z,13.20
2022-12-04T09:23:06.586Z,13.60
2022-12-04T09:25:09.715Z,12.97
2022-12-04T09:27:14.985Z,13.00
2022-12-04T09:29:18.085Z,13.20
2022-12-04T09:31:21.667Z,12.80
2022-12-04T09:33:24.706Z,11.23
2022-12-04T09:35:27.795Z,13.80
2022-12-04T09:37:30.948Z,13.97
2022-12-04T09:39:35.897Z,13.43
2022-12-04T09:41:51.732Z,13.00
2022-12-04T09:43:57.886Z,13.20
2022-12-04T09:46:04.197Z,12.30
2022-12-04T09:48:10.312Z,12.70
2022-12-04T09:50:17.066Z,13.10
2022-12-04T09:52:27.445Z,13.23
2022-12-04T09:54:35.083Z,13.53
2022-12-04T09:56:39.671Z,13.67
2022-12-04T09:58:47.486Z,12.63
2022-12-04T10:00:52.478Z,14.47
2022-12-04T10:02:57.679Z,13.20
2022-12-04T10:05:00.996Z,13.33
2022-12-04T10:07:10.206Z,13.60
2022-12-04T10:09:18.586Z,13.67
2022-12-04T10:11:32.239Z,13.33
2022-12-04T10:13:57.499Z,14.00
2022-12-04T10:16:04.926Z,13.67
2022-12-04T10:18:16.546Z,12.50
2022-12-04T10:20:30.103Z,12.60
2022-12-04T10:22:38.247Z,12.73
2022-12-04T10:24:43.678Z,12.97
2022-12-04T10:26:48.424Z,14.17
2022-12-04T10:28:56.780Z,13.63
2022-12-04T10:31:02.985Z,13.07
2022-12-04T10:33:14.587Z,11.20
2022-12-04T10:35:22.766Z,12.17
2022-12-04T10:37:27.160Z,11.90
2022-12-04T10:39:35.312Z,12.90
2022-12-04T10:41:42.477Z,12.73
2022-12-04T10:43:47.202Z,13.50
2022-12-04T10:45:51.470Z,14.20
2022-12-04T10:47:54.482Z,13.63
2022-12-04T10:50:00.809Z,14.20
2022-12-04T10:52:04.787Z,17.43
2022-12-04T10:54:14.421Z,14.20
2022-12-04T10:56:20.329Z,14.30
2022-12-04T10:58:23.545Z,13.00
2022-12-04T11:00:29.715Z,12.47
2022-12-04T11:02:35.365Z,13.63
2022-12-04T11:04:38.663Z,12.90
2022-12-04T11:06:41.556Z,15.00
2022-12-04T11:08:50.137Z,13.57
2022-12-04T11:10:58.228Z,14.03
2022-12-04T11:13:03.087Z,15.77
2022-12-04T11:15:15.849Z,14.70
2022-12-04T11:17:20.922Z,14.00
2022-12-04T11:19:28.395Z,13.80
2022-12-04T11:21:32.323Z,13.00
2022-12-04T11:23:37.141Z,13.60
2022-12-04T11:25:46.458Z,13.00
2022-12-04T11:27:51.957Z,14.60
2022-12-04T11:29:55.915Z,23.50
2022-12-04T11:32:04.216Z,12.57
2022-12-04T11:34:16.560Z,13.10
2022-12-04T11:36:25.100Z,13.90
2022-12-04T11:38:30.614Z,14.07
2022-12-04T11:40:33.603Z,13.33
2022-12-04T11:42:37.932Z,12.30
2022-12-04T11:44:41.659Z,12.00
2022-12-04T11:46:53.115Z,13.43
2022-12-04T11:48:56.506Z,12.27
2022-12-04T11:51:08.642Z,11.50
2022-12-04T11:53:17.712Z,15.00
2022-12-04T11:55:28.853Z,13.20
2022-12-04T11:57:38.894Z,14.60
2022-12-04T11:59:51.290Z,13.63
2022-12-04T12:02:00.277Z,11.30
2022-12-04T12:04:37.956Z,12.77
2022-12-04T12:06:41.601Z,12.80
2022-12-04T12:08:57.430Z,12.07
2022-12-04T12:11:10.641Z,12.53
2022-12-04T12:13:19.430Z,12.70
2022-12-04T12:15:28.212Z,15.97
2022-12-04T12:17:34.659Z,14.30
2022-12-04T12:19:49.835Z,12.00
2022-12-04T12:22:00.773Z,11.37
2022-12-04T12:24:28.583Z,10.20
2022-12-04T12:26:37.772Z,11.60
2022-12-04T12:28:53.527Z,15.43
2022-12-04T12:31:08.668Z,11.80
2022-12-04T12:33:18.400Z,11.57
2022-12-04T12:35:24.084Z,18.20
2022-12-04T12:37:31.101Z,12.40
2022-12-04T12:39:40.027Z,13.27
2022-12-04T12:41:46.891Z,14.83
2022-12-04T12:43:54.149Z,13.00
2022-12-04T12:46:01.430Z,12.20
2022-12-04T12:48:10.810Z,13.10
2022-12-04T12:50:18.011Z,11.30
2022-12-04T12:52:28.990Z,13.47
2022-12-04T12:54:36.289Z,10.60
2022-12-04T12:56:49.156Z,12.30
2022-12-04T12:58:55.622Z,10.87
2022-12-04T13:01:01.766Z,9.90
2022-12-04T13:03:07.386Z,12.80
2022-12-04T13:05:12.640Z,11.63
2022-12-04T13:07:36.368Z,9.87
2022-12-04T13:09:42.973Z,10.60
2022-12-04T13:11:50.044Z,9.70
2022-12-04T13:13:55.693Z,10.70
2022-12-04T13:16:03.607Z,10.67
2022-12-04T13:18:08.213Z,11.83
2022-12-04T13:20:16.078Z,11.30
2022-12-04T13:22:27.588Z,11.20
2022-12-04T13:24:44.553Z,10.43
2022-12-04T13:26:53.650Z,9.80
2022-12-04T13:29:02.592Z,11.03
2022-12-04T13:31:14.322Z,9.90
2022-12-04T13:33:43.403Z,10.80
2022-12-04T13:36:03.601Z,10.90
2022-12-04T13:38:17.810Z,10.90
2022-12-04T13:40:33.856Z,9.63
2022-12-04T13:42:38.225Z,9.87
2022-12-04T13:44:43.546Z,11.10
2022-12-04T13:46:52.780Z,11.13
2022-12-04T13:48:55.996Z,10.20
2022-12-04T13:51:06.948Z,11.20
2022-12-04T13:53:31.382Z,11.30
2022-12-04T13:55:36.873Z,11.03
2022-12-04T13:57:41.627Z,12.60
2022-12-04T13:59:45.138Z,11.37
2022-12-04T14:01:50.061Z,11.37
2022-12-04T14:03:55.514Z,11.60
2022-12-04T14:06:00.005Z,11.30
2022-12-04T14:08:08.281Z,11.60
2022-12-04T14:10:27.741Z,11.50
2022-12-04T14:12:33.539Z,9.60
2022-12-04T14:14:43.715Z,11.70
2022-12-04T14:16:49.934Z,11.03
2022-12-04T14:18:55.992Z,11.77
2022-12-04T14:21:01.073Z,10.40
2022-12-04T14:23:26.652Z,10.00
2022-12-04T14:25:38.033Z,9.73
2022-12-04T14:27:45.393Z,13.23
2022-12-04T14:29:54.376Z,12.20
2022-12-04T14:32:00.354Z,11.27
2022-12-04T14:34:20.379Z,9.20
2022-12-04T14:36:26.985Z,10.90
2022-12-04T14:38:30.355Z,10.57
2022-12-04T14:40:44.178Z,11.50
2022-12-04T14:42:49.374Z,11.17
2022-12-04T14:44:57.455Z,11.93
2022-12-04T14:47:10.783Z,11.90
2022-12-04T14:49:27.567Z,11.60
2022-12-04T14:51:33.641Z,11.60
2022-12-04T14:53:42.232Z,12.50
2022-12-04T14:55:53.019Z,12.03
2022-12-04T14:57:58.736Z,12.43
2022-12-04T15:00:05.581Z,11.33
2022-12-04T15:02:13.376Z,11.63
2022-12-04T15:04:23.048Z,13.20
2022-12-04T15:06:27.615Z,13.73
2022-12-04T15:08:30.510Z,12.07
2022-12-04T15:10:53.455Z,11.90
2022-12-04T15:12:56.689Z,12.40
2022-12-04T15:15:00.342Z,11.73
2022-12-04T15:17:05.478Z,13.60
2022-12-04T15:19:17.833Z,13.70
2022-12-04T15:21:21.920Z,13.60
2022-12-04T15:23:27.994Z,17.20
2022-12-04T15:25:45.507Z,13.70
2022-12-04T15:27:49.830Z,13.20
2022-12-04T15:29:53.858Z,13.40
2022-12-04T15:31:58.970Z,12.57
2022-12-04T15:34:05.412Z,12.17
2022-12-04T15:36:11.247Z,12.50
2022-12-04T15:38:15.116Z,13.50
2022-12-04T15:40:23.116Z,17.53
2022-12-04T15:42:28.118Z,11.97
2022-12-04T15:44:32.371Z,11.50
2022-12-04T15:46:37.990Z,11.53
2022-12-04T15:48:46.353Z,12.60
2022-12-04T15:50:59.084Z,12.20
2022-12-04T15:53:09.905Z,12.20
2022-12-04T15:55:18.300Z,12.67
2022-12-04T15:57:28.586Z,11.50
2022-12-04T15:59:32.219Z,13.60
2022-12-04T16:01:39.789Z,15.10
2022-12-04T16:03:48.517Z,15.57
2022-12-04T16:05:51.498Z,16.60
2022-12-04T16:07:58.146Z,17.77
2022-12-04T16:10:04.350Z,15.87
2022-12-04T16:12:18.761Z,16.80
2022-12-04T16:14:22.881Z,16.80
2022-12-04T16:16:27.142Z,18.20
2022-12-04T16:18:30.174Z,16.90
2022-12-04T16:20:34.940Z,16.53
2022-12-04T16:22:40.286Z,18.10
2022-12-04T16:24:45.233Z,19.27
2022-12-04T16:26:50.278Z,15.20
2022-12-04T16:28:53.256Z,16.17
2022-12-04T16:30:56.168Z,15.77
2022-12-04T16:32:59.587Z,15.97
2022-12-04T16:35:02.887Z,16.60
2022-12-04T16:37:12.587Z,16.00
2022-12-04T16:39:15.847Z,18.27
2022-12-04T16:41:21.228Z,16.47
2022-12-04T16:43:25.099Z,17.50
2022-12-04T16:45:34.254Z,16.90
2022-12-04T16:47:37.190Z,18.10
2022-12-04T16:49:40.399Z,17.73
2022-12-04T16:51:49.524Z,16.30
2022-12-04T16:53:53.617Z,16.40
2022-12-04T16:55:56.724Z,17.27
2022-12-04T16:58:02.781Z,17.93
2022-12-04T17:00:06.654Z,17.67
2022-12-04T17:02:15.737Z,16.80
2022-12-04T17:04:19.594Z,20.60
2022-12-04T17:06:22.880Z,16.90
2022-12-04T17:08:27.599Z,19.00
2022-12-04T17:10:31.614Z,16.47
2022-12-04T17:12:37.256Z,18.30
2022-12-04T17:14:46.131Z,18.30
2022-12-04T17:16:49.566Z,17.77
2022-12-04T17:18:53.778Z,17.40
2022-12-04T17:20:58.700Z,17.57
2022-12-04T17:23:01.628Z,19.17
2022-12-04T17:25:04.988Z,17.60
2022-12-04T17:27:12.046Z,17.63
2022-12-04T17:29:15.114Z,17.70
2022-12-04T17:31:26.728Z,18.53
2022-12-04T17:33:29.671Z,17.03
2022-12-04T17:35:32.780Z,19.00
2022-12-04T17:37:39.390Z,17.73
2022-12-04T17:39:44.775Z,18.70
2022-12-04T17:41:47.632Z,19.53
2022-12-04T17:43:50.947Z,18.67
2022-12-04T17:45:53.960Z,19.43
2022-12-04T17:47:58.411Z,20.43
2022-12-04T17:50:01.894Z,19.40
2022-12-04T17:52:05.291Z,17.73
2022-12-04T17:54:09.186Z,19.10
2022-12-04T17:56:13.528Z,18.80
2022-12-04T17:58:16.756Z,19.50
2022-12-04T18:00:20.007Z,19.40
2022-12-04T18:02:22.959Z,19.80
2022-12-04T18:04:27.656Z,20.80
2022-12-04T18:06:33.210Z,20.70
2022-12-04T18:08:36.287Z,20.00
2022-12-04T18:10:39.382Z,20.40
2022-12-04T18:12:42.586Z,21.40
2022-12-04T18:14:45.549Z,19.97
2022-12-04T18:16:52.791Z,20.17
2022-12-04T18:18:56.028Z,19.70
2022-12-04T18:21:04.052Z,20.53
2022-12-04T18:23:07.052Z,22.30
2022-12-04T18:25:10.943Z,22.17
2022-12-04T18:27:14.196Z,22.73
2022-12-04T18:29:19.994Z,23.23
2022-12-04T18:31:23.165Z,22.40
2022-12-04T18:33:26.299Z,21.80
2022-12-04T18:35:29.186Z,24.10
2022-12-04T18:37:37.399Z,21.97
2022-12-04T18:39:40.307Z,22.50
2022-12-04T18:41:47.083Z,23.47
2022-12-04T18:43:50.151Z,20.90
2022-12-04T18:46:04.061Z,21.70
2022-12-04T18:48:11.592Z,21.60
2022-12-04T18:50:14.697Z,23.00
2022-12-04T18:52:17.877Z,23.97
2022-12-04T18:54:24.184Z,21.90
2022-12-04T18:56:27.505Z,23.27
2022-12-04T18:58:30.704Z,23.17
2022-12-04T19:00:34.231Z,22.90
2022-12-04T19:02:37.582Z,23.20
2022-12-04T19:04:41.083Z,22.93
2022-12-04T19:06:45.751Z,22.20
2022-12-04T19:08:48.925Z,23.83
2022-12-04T19:10:53.682Z,22.80
2022-12-04T19:12:56.768Z,21.87
2022-12-04T19:14:59.767Z,20.93
2022-12-04T19:17:02.973Z,21.07
2022-12-04T19:19:06.211Z,23.53
2022-12-04T19:21:09.959Z,21.07
2022-12-04T19:23:12.940Z,22.77
2022-12-04T19:25:16.227Z,22.37
2022-12-04T19:27:20.681Z,20.80
2022-12-04T19:29:23.562Z,22.50
2022-12-04T19:31:29.257Z,22.53
2022-12-04T19:33:32.660Z,21.50
2022-12-04T19:35:35.880Z,21.70
2022-12-04T19:37:41.946Z,20.20
2022-12-04T19:39:45.512Z,20.17
2022-12-04T19:41:48.389Z,20.20
2022-12-04T19:43:54.244Z,19.50
2022-12-04T19:45:57.236Z,20.20
2022-12-04T19:48:00.220Z,19.40
2022-12-04T19:50:03.136Z,20.27
2022-12-04T19:52:06.632Z,21.40
2022-12-04T19:54:16.454Z,21.33
2022-12-04T19:56:24.308Z,20.33
2022-12-04T19:58:28.671Z,20.53
2022-12-04T20:00:32.991Z,18.33
2022-12-04T20:02:36.327Z,19.30
2022-12-04T20:04:39.876Z,19.67
2022-12-04T20:06:45.675Z,18.60
2022-12-04T20:08:49.176Z,19.30
2022-12-04T20:10:52.143Z,19.17
2022-12-04T20:12:57.193Z,19.70
2022-12-04T20:15:03.042Z,18.80
2022-12-04T20:17:07.413Z,20.30
2022-12-04T20:19:14.737Z,19.87
2022-12-04T20:21:17.661Z,19.70
2022-12-04T20:23:20.529Z,19.90
2022-12-04T20:25:23.715Z,17.70
2022-12-04T20:27:26.633Z,19.50
2022-12-04T20:29:29.877Z,20.47
2022-12-04T20:31:35.033Z,19.53
2022-12-04T20:33:41.125Z,19.20
2022-12-04T20:35:44.085Z,19.43
2022-12-04T20:37:46.928Z,19.93
2022-12-04T20:39:49.994Z,19.63
2022-12-04T20:41:52.876Z,19.27
2022-12-04T20:43:55.826Z,19.27
2022-12-04T20:45:59.096Z,21.50
2022-12-04T20:48:03.052Z,20.20
2022-12-04T20:50:09.238Z,21.37
2022-12-04T20:52:12.379Z,22.10
2022-12-04T20:54:18.112Z,23.07
2022-12-04T20:56:22.567Z,23.60
2022-12-04T20:58:25.521Z,25.97
2022-12-04T21:00:28.678Z,29.17
2022-12-04T21:02:31.882Z,35.17
2022-12-04T21:04:37.787Z,35.20
2022-12-04T21:06:42.679Z,36.40
2022-12-04T21:08:54.334Z,32.80
2022-12-04T21:10:57.996Z,28.10
2022-12-04T21:13:19.315Z,22.80
2022-12-04T21:15:39.891Z,20.10
2022-12-04T21:17:42.991Z,18.60
2022-12-04T21:19:46.851Z,17.97
2022-12-04T21:21:52.097Z,19.43
2022-12-04T21:23:55.136Z,19.20
2022-12-04T21:25:58.463Z,17.50
2022-12-04T21:28:02.640Z,18.33
2022-12-04T21:30:08.435Z,15.90
2022-12-04T21:32:12.027Z,17.80
2022-12-04T21:34:18.364Z,16.73
2022-12-04T21:36:22.997Z,16.90
2022-12-04T21:38:44.504Z,16.97
2022-12-04T21:40:49.503Z,17.10
2022-12-04T21:42:51.645Z,16.97
2022-12-04T21:44:55.118Z,17.50
2022-12-04T21:46:59.483Z,17.67
2022-12-04T21:49:03.018Z,17.60
2022-12-04T21:51:16.838Z,15.60
2022-12-04T21:53:35.051Z,17.10
2022-12-04T21:55:48.287Z,17.00
2022-12-04T21:57:51.333Z,17.30
2022-12-04T21:59:54.929Z,16.47
2022-12-04T22:01:58.308Z,15.53
2022-12-04T22:04:01.273Z,16.20
2022-12-04T22:06:04.591Z,16.47
2022-12-04T22:08:07.818Z,16.60
2022-12-04T22:10:12.788Z,16.33
2022-12-04T22:14:39.055Z,15.70
2022-12-04T22:16:43.368Z,16.47
2022-12-04T22:18:46.898Z,15.60
2022-12-04T22:20:49.803Z,16.60
2022-12-04T22:22:52.749Z,16.13
2022-12-04T22:24:55.552Z,15.87
2022-12-04T22:26:59.841Z,17.70
2022-12-04T22:29:20.791Z,16.90
2022-12-04T22:31:29.321Z,15.90
2022-12-04T22:33:32.428Z,17.17
2022-12-04T22:35:35.473Z,16.33
2022-12-04T22:37:44.614Z,15.83
2022-12-04T22:39:47.912Z,16.23
2022-12-04T22:41:51.349Z,17.50
2022-12-04T22:43:56.444Z,15.47
2022-12-04T22:46:01.126Z,16.43
2022-12-04T22:48:04.647Z,16.33
2022-12-04T22:50:09.019Z,17.27
2022-12-04T22:52:11.983Z,16.83
2022-12-04T22:54:15.641Z,15.90
2022-12-04T22:56:20.429Z,15.27
2022-12-04T22:58:23.662Z,16.20
2022-12-04T23:00:28.341Z,15.57
2022-12-04T23:02:31.351Z,15.67
2022-12-04T23:04:34.737Z,13.93
2022-12-04T23:06:38.112Z,16.97
2022-12-04T23:08:42.541Z,16.63
2022-12-04T23:10:45.745Z,16.30
2022-12-04T23:12:49.686Z,16.20
2022-12-04T23:14:52.964Z,15.90
2022-12-04T23:16:57.510Z,14.87
2022-12-04T23:19:00.677Z,15.33
2022-12-04T23:21:05.233Z,15.73
2022-12-04T23:23:08.130Z,16.33
2022-12-04T23:25:11.274Z,14.50
2022-12-04T23:27:14.126Z,15.23
2022-12-04T23:29:44.965Z,15.10
2022-12-04T23:31:40.233Z,15.67
2022-12-04T23:33:44.700Z,16.33
2022-12-04T23:35:52.204Z,14.93
2022-12-04T23:37:55.078Z,15.37
2022-12-04T23:39:58.329Z,16.80
2022-12-04T23:42:01.366Z,17.77
2022-12-04T23:44:06.342Z,16.10
2022-12-04T23:46:11.659Z,15.40
2022-12-04T23:48:14.967Z,16.77
2022-12-04T23:50:19.429Z,16.57
2022-12-04T23:52:22.289Z,15.40
2022-12-04T23:54:25.118Z,16.37
2022-12-04T23:56:29.288Z,16.73
2022-12-04T23:58:32.746Z,15.50
